createdAt,value
2018-11-01T00:02:04.152Z,100474.33
2018-11-01T00:04:32.523Z,100473.89
2018-11-01T00:07:00.877Z,100471.83
2018-11-01T00:09:29.827Z,100472.23
2018-11-01T00:11:58.189Z,100472.34
2018-11-01T00:14:26.550Z,100473.56
2018-11-01T00:16:54.977Z,100473.56
2018-11-01T00:19:23.665Z,100475.33
2018-11-01T00:21:52.003Z,100472.79
2018-11-01T00:24:20.316Z,100463.97
2018-11-01T00:26:48.642Z,100454.63
2018-11-01T00:29:17.013Z,100454.25
2018-11-01T00:31:46.174Z,100449.98
2018-11-01T00:34:14.695Z,100448.38
2018-11-01T00:36:43.518Z,100444.55
2018-11-01T00:39:13.482Z,100440.77
2018-11-01T00:41:41.858Z,100442.15
2018-11-01T00:44:11.010Z,100442.62
2018-11-01T00:46:39.787Z,100437.09
2018-11-01T00:49:08.348Z,100437.09
2018-11-01T00:51:37.817Z,100434.59
2018-11-01T00:54:06.913Z,100424.84
2018-11-01T00:56:35.275Z,100432.09
2018-11-01T00:59:03.899Z,100426.20
2018-11-01T01:01:32.336Z,100424.09
2018-11-01T01:04:00.986Z,100421.56
2018-11-01T01:06:29.345Z,100424.15
2018-11-01T01:08:57.713Z,100429.69
2018-11-01T01:11:26.331Z,100428.86
2018-11-01T01:13:54.711Z,100443.36
2018-11-01T01:16:23.117Z,100444.66
2018-11-01T01:18:51.519Z,100443.75
2018-11-01T01:21:19.981Z,100443.39
2018-11-01T01:23:48.615Z,100452.24
2018-11-01T01:26:17.042Z,100453.11
2018-11-01T01:28:45.465Z,100448.02
2018-11-01T01:31:14.353Z,100451.80
2018-11-01T01:33:42.785Z,100456.50
2018-11-01T01:36:11.177Z,100461.16
2018-11-01T01:38:41.317Z,100460.33
2018-11-01T01:41:10.220Z,100462.03
2018-11-01T01:43:38.610Z,100454.86
2018-11-01T01:46:07.034Z,100454.86
2018-11-01T01:48:35.389Z,100455.30
2018-11-01T01:51:03.702Z,100454.02
2018-11-01T01:53:32.039Z,100453.63
2018-11-01T01:56:00.391Z,100452.34
2018-11-01T01:58:28.810Z,100449.37
2018-11-01T02:00:57.399Z,100450.67
2018-11-01T02:03:25.736Z,100441.36
2018-11-01T02:05:54.103Z,100434.91
2018-11-01T02:08:22.509Z,100432.36
2018-11-01T02:10:50.882Z,100414.12
2018-11-01T02:13:19.243Z,100408.58
2018-11-01T02:15:47.641Z,100406.79
2018-11-01T02:18:16.039Z,100400.77
2018-11-01T02:20:44.935Z,100402.47
2018-11-01T02:23:13.345Z,100401.59
2018-11-01T02:25:41.750Z,100410.47
2018-11-01T02:28:16.803Z,100405.41
2018-11-01T02:30:45.299Z,100405.36
2018-11-01T02:33:13.641Z,100403.20
2018-11-01T02:35:42.124Z,100404.52
2018-11-01T02:38:10.555Z,100406.63
2018-11-01T02:40:38.860Z,100404.47
2018-11-01T02:43:07.574Z,100408.64
2018-11-01T02:45:35.979Z,100406.48
2018-11-01T02:48:04.394Z,100410.30
2018-11-01T02:50:32.841Z,100392.45
2018-11-01T02:53:01.387Z,100401.81
2018-11-01T02:55:30.007Z,100390.28
2018-11-01T02:57:58.683Z,100384.80
2018-11-01T03:00:27.301Z,100381.36
2018-11-01T03:02:55.675Z,100380.13
2018-11-01T03:05:24.289Z,100379.30
2018-11-01T03:07:52.656Z,100371.55
2018-11-01T03:10:21.031Z,100365.66
2018-11-01T03:12:49.543Z,100360.95
2018-11-01T03:15:18.531Z,100362.68
2018-11-01T03:17:46.876Z,100364.28
2018-11-01T03:20:15.255Z,100357.19
2018-11-01T03:22:43.641Z,100346.69
2018-11-01T03:25:12.137Z,100356.91
2018-11-01T03:27:41.191Z,100351.86
2018-11-01T03:30:10.709Z,100347.27
2018-11-01T03:32:39.893Z,100346.48
2018-11-01T03:35:09.121Z,100349.06
2018-11-01T03:37:37.459Z,100342.31
2018-11-01T03:40:07.462Z,100336.81
2018-11-01T03:42:36.180Z,100339.84
2018-11-01T03:45:06.386Z,100336.11
2018-11-01T03:47:34.830Z,100328.52
2018-11-01T03:50:03.311Z,100331.50
2018-11-01T03:52:31.696Z,100322.63
2018-11-01T03:55:00.048Z,100320.48
2018-11-01T03:57:28.410Z,100317.09
2018-11-01T03:59:56.732Z,100317.92
2018-11-01T04:02:25.117Z,100312.44
2018-11-01T04:05:01.437Z,100306.95
2018-11-01T04:07:29.783Z,100299.78
2018-11-01T04:09:58.854Z,100296.80
2018-11-01T04:12:27.511Z,100292.62
2018-11-01T04:14:56.261Z,100287.48
2018-11-01T04:17:24.632Z,100286.70
2018-11-01T04:19:53.007Z,100296.52
2018-11-01T04:22:21.746Z,100304.99
2018-11-01T04:24:50.163Z,100319.09
2018-11-01T04:27:18.920Z,100318.29
2018-11-01T04:29:47.313Z,100319.59
2018-11-01T04:32:15.907Z,100319.56
2018-11-01T04:34:44.338Z,100324.22
2018-11-01T04:37:12.754Z,100324.30
2018-11-01T04:39:41.098Z,100334.51
2018-11-01T04:42:10.218Z,100326.48
2018-11-01T04:44:38.591Z,100324.41
2018-11-01T04:47:06.983Z,100319.30
2018-11-01T04:49:35.464Z,100311.67
2018-11-01T04:52:04.460Z,100309.97
2018-11-01T04:54:32.803Z,100310.42
2018-11-01T04:57:01.201Z,100307.48
2018-11-01T04:59:29.765Z,100307.48
2018-11-01T05:01:58.648Z,100315.18
2018-11-01T05:04:27.079Z,100309.67
2018-11-01T05:06:55.509Z,100293.61
2018-11-01T05:09:24.198Z,100300.38
2018-11-01T05:11:52.684Z,100284.72
2018-11-01T05:14:21.091Z,100282.17
2018-11-01T05:16:49.439Z,100282.58
2018-11-01T05:19:17.829Z,100284.28
2018-11-01T05:21:46.207Z,100271.14
2018-11-01T05:24:14.621Z,100269.47
2018-11-01T05:26:42.976Z,100263.55
2018-11-01T05:29:11.374Z,100260.21
2018-11-01T05:31:40.065Z,100263.17
2018-11-01T05:34:08.742Z,100254.70
2018-11-01T05:36:37.177Z,100261.07
2018-11-01T05:39:08.604Z,100260.20
2018-11-01T05:41:37.075Z,100258.09
2018-11-01T05:44:05.653Z,100260.23
2018-11-01T05:46:34.142Z,100265.72
2018-11-01T05:49:03.217Z,100261.07
2018-11-01T05:51:31.648Z,100260.25
2018-11-01T05:54:00.015Z,100258.54
2018-11-01T05:56:29.145Z,100258.13
2018-11-01T05:58:57.736Z,100254.30
2018-11-01T06:01:32.449Z,100251.34
2018-11-01T06:04:01.311Z,100239.89
2018-11-01T06:06:30.304Z,100234.83
2018-11-01T06:08:59.825Z,100235.69
2018-11-01T06:11:28.918Z,100236.53
2018-11-01T06:13:57.318Z,100231.03
2018-11-01T06:16:25.834Z,100224.69
2018-11-01T06:18:54.533Z,100223.39
2018-11-01T06:21:22.894Z,100213.27
2018-11-01T06:23:51.319Z,100212.41
2018-11-01T06:26:19.811Z,100221.73
2018-11-01T06:28:48.210Z,100220.86
2018-11-01T06:31:16.639Z,100229.32
2018-11-01T06:33:45.551Z,100230.63
2018-11-01T06:36:15.338Z,100224.27
2018-11-01T06:38:43.963Z,100212.84
2018-11-01T06:41:12.345Z,100212.83
2018-11-01T06:43:40.750Z,100227.64
2018-11-01T06:46:09.333Z,100228.48
2018-11-01T06:48:37.698Z,100238.20
2018-11-01T06:51:06.396Z,100235.27
2018-11-01T06:53:34.910Z,100230.63
2018-11-01T06:56:04.281Z,100222.97
2018-11-01T06:58:32.898Z,100216.65
2018-11-01T07:01:01.086Z,100208.20
2018-11-01T07:03:29.590Z,100204.80
2018-11-01T07:05:57.952Z,100200.16
2018-11-01T07:08:26.402Z,100197.61
2018-11-01T07:10:55.639Z,100202.25
2018-11-01T07:13:23.999Z,100200.56
2018-11-01T07:15:52.358Z,100181.09
2018-11-01T07:18:20.760Z,100175.56
2018-11-01T07:20:49.097Z,100178.98
2018-11-01T07:23:17.446Z,100192.07
2018-11-01T07:25:45.902Z,100214.92
2018-11-01T07:28:14.245Z,100220.80
2018-11-01T07:30:42.623Z,100230.09
2018-11-01T07:33:11.756Z,100236.43
2018-11-01T07:35:40.173Z,100228.38
2018-11-01T07:38:08.607Z,100231.33
2018-11-01T07:40:37.159Z,100229.63
2018-11-01T07:43:06.605Z,100216.91
2018-11-01T07:45:34.963Z,100210.52
2018-11-01T07:48:03.471Z,100202.44
2018-11-01T07:50:31.778Z,100189.67
2018-11-01T07:53:00.354Z,100177.82
2018-11-01T07:55:28.592Z,100168.02
2018-11-01T07:57:57.026Z,100174.34
2018-11-01T08:00:25.504Z,100180.23
2018-11-01T08:02:53.847Z,100183.18
2018-11-01T08:05:22.262Z,100185.25
2018-11-01T08:07:50.604Z,100182.71
2018-11-01T08:10:19.416Z,100174.52
2018-11-01T08:12:48.339Z,100166.36
2018-11-01T08:15:18.261Z,100164.95
2018-11-01T08:17:47.323Z,100158.28
2018-11-01T08:20:16.455Z,100166.70
2018-11-01T08:22:44.721Z,100161.41
2018-11-01T08:25:13.581Z,100159.85
2018-11-01T08:27:42.676Z,100163.81
2018-11-01T08:30:13.234Z,100157.45
2018-11-01T08:32:41.641Z,100155.69
2018-11-01T08:35:10.911Z,100157.30
2018-11-01T08:37:39.884Z,100157.59
2018-11-01T08:40:09.049Z,100160.48
2018-11-01T08:42:37.519Z,100157.38
2018-11-01T08:45:07.810Z,100158.58
2018-11-01T08:47:36.357Z,100161.03
2018-11-01T08:50:05.418Z,100157.14
2018-11-01T08:52:33.809Z,100153.81
2018-11-01T08:55:02.247Z,100140.48
2018-11-01T08:57:30.727Z,100133.56
2018-11-01T08:59:59.123Z,100129.72
2018-11-01T09:02:27.510Z,100119.42
2018-11-01T09:04:55.838Z,100109.06
2018-11-01T09:07:24.718Z,100094.45
2018-11-01T09:09:53.055Z,100091.83
2018-11-01T09:12:21.504Z,100096.08
2018-11-01T09:14:49.915Z,100097.14
2018-11-01T09:17:18.283Z,100103.22
2018-11-01T09:19:46.752Z,100103.83
2018-11-01T09:22:15.330Z,100097.44
2018-11-01T09:24:43.753Z,100102.73
2018-11-01T09:27:12.574Z,100107.77
2018-11-01T09:29:40.958Z,100115.66
2018-11-01T09:32:09.387Z,100116.61
2018-11-01T09:34:37.815Z,100116.14
2018-11-01T09:37:06.197Z,100121.23
2018-11-01T09:39:34.594Z,100113.90
2018-11-01T09:42:03.042Z,100107.55
2018-11-01T09:44:31.637Z,100105.34
2018-11-01T09:47:00.770Z,100109.05
2018-11-01T09:49:28.819Z,100108.37
2018-11-01T09:51:57.356Z,100108.35
2018-11-01T09:54:26.730Z,100106.42
2018-11-01T09:56:55.152Z,100096.92
2018-11-01T09:59:23.569Z,100087.09
2018-11-01T10:01:51.968Z,100077.81
2018-11-01T10:04:20.375Z,100070.27
2018-11-01T10:06:48.853Z,100063.55
2018-11-01T10:09:17.965Z,100070.27
2018-11-01T10:11:46.439Z,100067.66
2018-11-01T10:14:15.443Z,100063.34
2018-11-01T10:16:44.103Z,100059.31
2018-11-01T10:19:12.420Z,100048.98
2018-11-01T10:21:40.898Z,100049.41
2018-11-01T10:24:09.597Z,100038.88
2018-11-01T10:26:38.083Z,100036.95
2018-11-01T10:29:06.533Z,100042.43
2018-11-01T10:31:34.914Z,100045.62
2018-11-01T10:34:03.479Z,100047.49
2018-11-01T10:36:31.812Z,100050.20
2018-11-01T10:39:00.436Z,100045.02
2018-11-01T10:41:28.821Z,100043.38
2018-11-01T10:43:57.977Z,100033.44
2018-11-01T10:46:26.432Z,100033.39
2018-11-01T10:48:55.060Z,100041.71
2018-11-01T10:51:23.732Z,100043.90
2018-11-01T10:53:52.162Z,100036.12
2018-11-01T10:56:20.975Z,100030.09
2018-11-01T10:58:49.370Z,100027.25
2018-11-01T11:01:23.424Z,100030.86
2018-11-01T11:03:51.799Z,100036.47
2018-11-01T11:06:20.184Z,100024.91
2018-11-01T11:08:48.528Z,100013.77
2018-11-01T11:11:16.961Z,100016.45
2018-11-01T11:13:45.373Z,100002.02
2018-11-01T11:16:13.723Z,100005.05
2018-11-01T11:18:42.250Z,100003.36
2018-11-01T11:21:10.908Z,100012.57
2018-11-01T11:23:38.962Z,100005.59
2018-11-01T11:26:07.368Z,99999.45
2018-11-01T11:28:35.691Z,99996.03
2018-11-01T11:31:04.160Z,99980.72
2018-11-01T11:33:32.600Z,99985.47
2018-11-01T11:36:01.075Z,99978.23
2018-11-01T11:38:29.426Z,99987.20
2018-11-01T11:40:57.823Z,99989.45
2018-11-01T11:43:26.201Z,100003.30
2018-11-01T11:45:54.662Z,100012.52
2018-11-01T11:48:23.621Z,99994.59
2018-11-01T11:50:52.541Z,99987.66
2018-11-01T11:53:20.925Z,99978.92
2018-11-01T11:55:49.453Z,99973.30
2018-11-01T11:58:17.860Z,99962.48
2018-11-01T12:00:46.267Z,99962.02
2018-11-01T12:03:14.677Z,99963.16
2018-11-01T12:05:43.556Z,99956.67
2018-11-01T12:08:11.978Z,99952.26
2018-11-01T12:10:40.473Z,99942.41
2018-11-01T12:13:08.906Z,99935.69
2018-11-01T12:15:38.299Z,99942.59
2018-11-01T12:18:06.647Z,99930.22
2018-11-01T12:20:35.023Z,99927.59
2018-11-01T12:23:03.538Z,99928.94
2018-11-01T12:25:31.919Z,99932.03
2018-11-01T12:28:00.352Z,99932.14
2018-11-01T12:30:28.787Z,99913.73
2018-11-01T12:32:57.261Z,99916.60
2018-11-01T12:35:25.680Z,99908.01
2018-11-01T12:37:54.075Z,99911.52
2018-11-01T12:40:22.469Z,99908.54
2018-11-01T12:42:53.755Z,99904.27
2018-11-01T12:45:22.406Z,99907.37
2018-11-01T12:47:50.846Z,99913.29
2018-11-01T12:50:19.278Z,99909.70
2018-11-01T12:52:48.161Z,99888.97
2018-11-01T12:55:17.303Z,99877.13
2018-11-01T12:57:46.786Z,99881.42
2018-11-01T13:00:15.192Z,99871.91
2018-11-01T13:02:43.766Z,99878.67
2018-11-01T13:05:12.741Z,99874.62
2018-11-01T13:07:41.207Z,99887.98
2018-11-01T13:10:10.418Z,99876.55
2018-11-01T13:12:39.118Z,99867.55
2018-11-01T13:15:09.014Z,99866.67
2018-11-01T13:17:37.793Z,99864.27
2018-11-01T13:20:06.510Z,99859.19
2018-11-01T13:22:34.877Z,99860.42
2018-11-01T13:25:03.281Z,99868.50
2018-11-01T13:27:31.748Z,99890.70
2018-11-01T13:30:00.089Z,99903.22
2018-11-01T13:32:29.037Z,99899.75
2018-11-01T13:34:58.285Z,99907.25
2018-11-01T13:37:26.914Z,99898.56
2018-11-01T13:39:55.728Z,99882.95
2018-11-01T13:42:23.951Z,99898.92
2018-11-01T13:44:52.329Z,99898.23
2018-11-01T13:47:20.829Z,99895.22
2018-11-01T13:49:49.471Z,99917.06
2018-11-01T13:52:17.871Z,99921.47
2018-11-01T13:54:46.341Z,99925.96
2018-11-01T13:57:14.782Z,99912.32
2018-11-01T13:59:43.127Z,99910.73
2018-11-01T14:02:11.589Z,99912.14
2018-11-01T14:04:40.412Z,99909.58
2018-11-01T14:07:09.267Z,99896.36
2018-11-01T14:09:38.013Z,99897.13
2018-11-01T14:12:06.393Z,99908.23
2018-11-01T14:14:35.258Z,99909.27
2018-11-01T14:17:03.865Z,99907.50
2018-11-01T14:19:32.200Z,99908.69
2018-11-01T14:22:00.583Z,99915.05
2018-11-01T14:24:29.077Z,99922.08
2018-11-01T14:26:57.474Z,99918.13
2018-11-01T14:29:25.912Z,99919.73
2018-11-01T14:31:54.893Z,99924.50
2018-11-01T14:34:23.360Z,99909.52
2018-11-01T14:36:51.837Z,99907.85
2018-11-01T14:39:20.212Z,99897.33
2018-11-01T14:41:48.615Z,99904.14
2018-11-01T14:44:17.090Z,99902.62
2018-11-01T14:46:45.556Z,99895.97
2018-11-01T14:49:14.514Z,99901.78
2018-11-01T14:51:43.349Z,99901.95
2018-11-01T14:54:12.706Z,99899.05
2018-11-01T14:56:41.360Z,99895.30
2018-11-01T14:59:10.820Z,99894.44
2018-11-01T15:01:38.162Z,99889.45
2018-11-01T15:04:06.510Z,99897.13
2018-11-01T15:06:34.941Z,99888.02
2018-11-01T15:09:03.697Z,99891.44
2018-11-01T15:11:32.136Z,99884.78
2018-11-01T15:14:00.443Z,99888.20
2018-11-01T15:16:28.857Z,99886.61
2018-11-01T15:18:58.403Z,99888.63
2018-11-01T15:21:27.441Z,99891.41
2018-11-01T15:23:56.855Z,99877.45
2018-11-01T15:26:26.444Z,99864.75
2018-11-01T15:28:55.819Z,99862.52
2018-11-01T15:31:25.039Z,99869.71
2018-11-01T15:33:54.012Z,99875.91
2018-11-01T15:36:24.018Z,99886.21
2018-11-01T15:38:53.295Z,99892.64
2018-11-01T15:41:22.452Z,99892.77
2018-11-01T15:43:51.434Z,99890.70
2018-11-01T15:46:20.462Z,99893.30
2018-11-01T15:48:49.580Z,99884.34
2018-11-01T15:51:18.615Z,99888.63
2018-11-01T15:53:47.748Z,99875.36
2018-11-01T15:56:17.933Z,99886.16
2018-11-01T15:58:47.368Z,99901.06
2018-11-01T16:01:16.574Z,99899.78
2018-11-01T16:03:45.105Z,99896.81
2018-11-01T16:06:13.503Z,99881.55
2018-11-01T16:08:41.914Z,99895.63
2018-11-01T16:11:10.325Z,99891.45
2018-11-01T16:13:38.760Z,99889.82
2018-11-01T16:16:07.354Z,99891.94
2018-11-01T16:18:35.921Z,99892.89
2018-11-01T16:21:04.339Z,99896.50
2018-11-01T16:23:33.215Z,99899.59
2018-11-01T16:26:01.628Z,99897.73
2018-11-01T16:28:30.050Z,99897.04
2018-11-01T16:30:59.066Z,99900.57
2018-11-01T16:33:27.765Z,99902.68
2018-11-01T16:35:56.193Z,99891.63
2018-11-01T16:38:24.891Z,99880.53
2018-11-01T16:40:53.269Z,99869.02
2018-11-01T16:43:21.662Z,99877.31
2018-11-01T16:45:50.047Z,99874.07
2018-11-01T16:48:19.194Z,99874.59
2018-11-01T16:50:47.707Z,99886.34
2018-11-01T16:53:16.041Z,99894.92
2018-11-01T16:55:44.464Z,99896.78
2018-11-01T16:58:12.953Z,99897.72
2018-11-01T17:00:41.540Z,99900.88
2018-11-01T17:03:10.116Z,99903.89
2018-11-01T17:05:38.509Z,99908.77
2018-11-01T17:08:07.210Z,99911.97
2018-11-01T17:10:35.750Z,99910.95
2018-11-01T17:13:04.299Z,99910.48
2018-11-01T17:15:32.985Z,99919.08
2018-11-01T17:18:01.363Z,99915.96
2018-11-01T17:20:31.450Z,99918.15
2018-11-01T17:23:00.289Z,99916.98
2018-11-01T17:25:28.943Z,99920.33
2018-11-01T17:27:57.346Z,99928.99
2018-11-01T17:30:25.829Z,99929.03
2018-11-01T17:32:56.216Z,99937.70
2018-11-01T17:35:24.667Z,99940.02
2018-11-01T17:37:53.367Z,99943.45
2018-11-01T17:40:21.745Z,99942.63
2018-11-01T17:42:50.377Z,99953.11
2018-11-01T17:45:18.836Z,99962.95
2018-11-01T17:47:47.248Z,99952.74
2018-11-01T17:50:16.673Z,99952.78
2018-11-01T17:52:45.071Z,99956.14
2018-11-01T17:55:13.643Z,99953.70
2018-11-01T17:57:42.210Z,99950.30
2018-11-01T18:00:13.085Z,99947.83
2018-11-01T18:02:42.309Z,99941.95
2018-11-01T18:05:11.605Z,99945.76
2018-11-01T18:07:40.763Z,99946.23
2018-11-01T18:10:10.300Z,99946.34
2018-11-01T18:12:38.707Z,99954.13
2018-11-01T18:15:07.776Z,99960.09
2018-11-01T18:17:36.221Z,99957.98
2018-11-01T18:20:05.202Z,99953.44
2018-11-01T18:22:33.667Z,99950.89
2018-11-01T18:25:02.251Z,99948.34
2018-11-01T18:27:30.630Z,99942.06
2018-11-01T18:29:59.052Z,99947.69
2018-11-01T18:32:27.583Z,99951.51
2018-11-01T18:34:56.009Z,99950.23
2018-11-01T18:37:24.405Z,99950.31
2018-11-01T18:39:53.179Z,99951.63
2018-11-01T18:42:21.752Z,99946.63
2018-11-01T18:44:50.478Z,99942.36
2018-11-01T18:47:18.936Z,99947.90
2018-11-01T18:49:47.358Z,99964.09
2018-11-01T18:52:16.095Z,99964.16
2018-11-01T18:54:44.756Z,99983.68
2018-11-01T18:57:13.211Z,99987.95
2018-11-01T18:59:41.895Z,99996.44
2018-11-01T19:02:10.478Z,100003.70
2018-11-01T19:04:38.955Z,99999.11
2018-11-01T19:07:07.642Z,100004.23
2018-11-01T19:09:36.014Z,100015.77
2018-11-01T19:12:04.588Z,100018.33
2018-11-01T19:14:33.089Z,100020.86
2018-11-01T19:17:01.895Z,100014.11
2018-11-01T19:19:30.734Z,100015.38
2018-11-01T19:21:59.094Z,100008.96
2018-11-01T19:24:27.463Z,100009.70
2018-11-01T19:26:55.997Z,100008.81
2018-11-01T19:29:24.637Z,100021.14
2018-11-01T19:31:53.022Z,100027.00
2018-11-01T19:34:21.947Z,100027.82
2018-11-01T19:36:50.193Z,100023.57
2018-11-01T19:39:18.815Z,100021.03
2018-11-01T19:41:47.189Z,100021.45
2018-11-01T19:44:15.725Z,100027.83
2018-11-01T19:46:44.188Z,100029.50
2018-11-01T19:49:12.857Z,100034.19
2018-11-01T19:51:41.356Z,100040.89
2018-11-01T19:54:11.138Z,100049.30
2018-11-01T19:56:39.512Z,100045.40
2018-11-01T19:59:07.916Z,100043.97
2018-11-01T20:01:36.275Z,100047.64
2018-11-01T20:04:05.488Z,100064.95
2018-11-01T20:06:33.804Z,100067.92
2018-11-01T20:09:02.385Z,100065.23
2018-11-01T20:11:31.055Z,100069.48
2018-11-01T20:13:59.707Z,100071.42
2018-11-01T20:16:28.041Z,100071.44
2018-11-01T20:18:57.363Z,100083.30
2018-11-01T20:21:26.057Z,100084.45
2018-11-01T20:23:55.059Z,100087.84
2018-11-01T20:26:23.486Z,100090.59
2018-11-01T20:28:52.567Z,100093.65
2018-11-01T20:31:21.085Z,100105.09
2018-11-01T20:33:49.524Z,100110.64
2018-11-01T20:36:18.352Z,100120.91
2018-11-01T20:38:46.717Z,100119.35
2018-11-01T20:41:15.076Z,100120.64
2018-11-01T20:43:43.449Z,100124.11
2018-11-01T20:46:12.218Z,100132.62
2018-11-01T20:48:40.634Z,100124.56
2018-11-01T20:51:09.342Z,100129.68
2018-11-01T20:53:37.738Z,100134.86
2018-11-01T20:56:06.150Z,100133.19
2018-11-01T20:58:35.248Z,100141.78
2018-11-01T21:01:03.961Z,100142.23
2018-11-01T21:03:32.354Z,100145.69
2018-11-01T21:06:15.884Z,100149.95
2018-11-01T21:08:44.719Z,100150.34
2018-11-01T21:11:13.188Z,100160.98
2018-11-01T21:13:41.541Z,100166.16
2018-11-01T21:16:10.025Z,100156.80
2018-11-01T21:18:39.071Z,100147.92
2018-11-01T21:21:07.457Z,100149.58
2018-11-01T21:23:35.974Z,100154.16
2018-11-01T21:26:04.587Z,100152.95
2018-11-01T21:28:33.021Z,100154.23
2018-11-01T21:31:01.770Z,100158.82
2018-11-01T21:33:30.208Z,100160.59
2018-11-01T21:35:59.416Z,100160.54
2018-11-01T21:38:27.622Z,100162.72
2018-11-01T21:40:56.332Z,100161.51
2018-11-01T21:43:24.744Z,100154.75
2018-11-01T21:45:53.179Z,100156.48
2018-11-01T21:48:21.806Z,100178.40
2018-11-01T21:50:50.157Z,100176.75
2018-11-01T21:53:19.011Z,100183.06
2018-11-01T21:55:47.373Z,100190.34
2018-11-01T21:58:15.785Z,100191.16
2018-11-01T22:00:44.460Z,100189.06
2018-11-01T22:03:12.921Z,100205.20
2018-11-01T22:05:41.502Z,100214.17
2018-11-01T22:08:09.893Z,100209.89
2018-11-01T22:10:40.661Z,100219.69
2018-11-01T22:13:09.037Z,100222.59
2018-11-01T22:15:38.369Z,100231.00
2018-11-01T22:18:07.084Z,100237.70
2018-11-01T22:20:36.333Z,100233.48
2018-11-01T22:23:05.810Z,100225.30
2018-11-01T22:25:34.819Z,100232.58
2018-11-01T22:28:03.524Z,100238.53
2018-11-01T22:30:31.889Z,100244.45
2018-11-01T22:33:00.567Z,100245.63
2018-11-01T22:35:29.803Z,100240.54
2018-11-01T22:37:58.321Z,100239.41
2018-11-01T22:40:26.912Z,100232.72
2018-11-01T22:42:55.318Z,100248.05
2018-11-01T22:45:23.743Z,100241.23
2018-11-01T22:47:52.655Z,100228.98
2018-11-01T22:50:21.056Z,100225.59
2018-11-01T22:52:49.749Z,100220.48
2018-11-01T22:55:18.087Z,100220.51
2018-11-01T22:57:46.506Z,100221.39
2018-11-01T23:00:15.667Z,100230.76
2018-11-01T23:02:44.600Z,100231.99
2018-11-01T23:05:14.443Z,100229.87
2018-11-01T23:07:42.875Z,100228.59
2018-11-01T23:10:14.193Z,100239.56
2018-11-01T23:12:42.549Z,100246.33
2018-11-01T23:15:11.919Z,100252.25
2018-11-01T23:17:41.103Z,100256.53
2018-11-01T23:20:09.935Z,100250.52
2018-11-01T23:22:38.542Z,100263.20
2018-11-01T23:25:07.102Z,100263.20
2018-11-01T23:27:35.484Z,100267.41
2018-11-01T23:30:03.922Z,100271.64
2018-11-01T23:32:33.070Z,100277.05
2018-11-01T23:35:01.969Z,100276.13
2018-11-01T23:37:35.706Z,100273.20
2018-11-01T23:40:09.437Z,100261.20
2018-11-01T23:42:43.595Z,100270.97
2018-11-01T23:45:17.277Z,100268.00
2018-11-01T23:47:50.896Z,100263.65
2018-11-01T23:50:24.686Z,100257.72
2018-11-01T23:52:57.185Z,100256.81
2018-11-01T23:55:25.625Z,100231.73
2018-11-01T23:57:54.047Z,100221.91
